createdAt,value
2019-02-26T00:02:17.305Z,29.27
2019-02-26T00:07:23.493Z,28.50
2019-02-26T00:12:26.278Z,26.40
2019-02-26T00:17:27.700Z,27.57
2019-02-26T00:22:29.983Z,22.33
2019-02-26T00:27:35.026Z,23.40
2019-02-26T00:32:38.362Z,27.77
2019-02-26T00:37:40.624Z,28.70
2019-02-26T00:42:42.213Z,27.60
2019-02-26T00:47:46.152Z,25.67
2019-02-26T00:52:47.223Z,29.43
2019-02-26T00:57:48.781Z,25.93
2019-02-26T01:02:50.343Z,29.00
2019-02-26T01:07:54.220Z,27.60
2019-02-26T01:12:56.483Z,27.77
2019-02-26T01:18:01.439Z,33.33
2019-02-26T01:23:03.751Z,24.50
2019-02-26T01:28:05.299Z,26.90
2019-02-26T01:33:08.057Z,19.03
2019-02-26T01:38:12.065Z,23.63
2019-02-26T01:43:14.028Z,23.70
2019-02-26T01:48:18.392Z,25.07
2019-02-26T01:53:19.809Z,19.90
2019-02-26T01:58:22.541Z,22.70
2019-02-26T02:03:25.516Z,20.53
2019-02-26T02:08:27.589Z,16.43
2019-02-26T02:13:30.581Z,22.07
2019-02-26T02:18:32.731Z,20.77
2019-02-26T02:23:34.341Z,18.60
2019-02-26T02:28:35.880Z,21.70
2019-02-26T02:33:37.647Z,22.60
2019-02-26T02:38:39.400Z,22.20
2019-02-26T02:43:40.945Z,19.60
2019-02-26T02:48:42.487Z,19.57
2019-02-26T02:53:45.241Z,20.27
2019-02-26T02:58:49.487Z,21.37
2019-02-26T03:03:53.125Z,22.97
2019-02-26T03:08:54.467Z,22.57
2019-02-26T03:13:56.096Z,23.63
2019-02-26T03:18:57.662Z,22.50
2019-02-26T03:24:02.841Z,18.97
2019-02-26T03:29:03.725Z,22.90
2019-02-26T03:34:10.571Z,22.97
2019-02-26T03:39:08.829Z,22.37
2019-02-26T03:44:10.495Z,17.53
2019-02-26T03:49:12.107Z,22.07
2019-02-26T03:54:13.659Z,21.10
2019-02-26T03:59:15.214Z,22.03
2019-02-26T04:04:16.752Z,24.53
2019-02-26T04:09:19.618Z,21.43
2019-02-26T04:14:22.914Z,19.77
2019-02-26T04:19:26.854Z,23.50
2019-02-26T04:24:29.897Z,21.23
2019-02-26T04:29:36.093Z,22.87
2019-02-26T04:34:43.942Z,16.93
2019-02-26T04:40:05.389Z,21.03
2019-02-26T04:45:26.484Z,23.60
2019-02-26T04:50:29.571Z,20.77
2019-02-26T04:55:35.346Z,21.20
2019-02-26T05:00:36.571Z,24.40
2019-02-26T05:05:38.832Z,24.83
2019-02-26T05:10:40.384Z,22.67
2019-02-26T05:15:43.469Z,24.20
2019-02-26T05:20:48.511Z,21.63
2019-02-26T05:25:48.877Z,22.03
2019-02-26T05:30:51.395Z,18.67
2019-02-26T05:35:52.971Z,19.77
2019-02-26T05:40:55.798Z,22.37
2019-02-26T05:46:00.609Z,23.33
2019-02-26T05:51:03.605Z,25.00
2019-02-26T05:56:05.603Z,22.00
2019-02-26T06:01:07.160Z,22.40
2019-02-26T06:06:08.719Z,21.93
2019-02-26T06:11:10.411Z,22.53
2019-02-26T06:16:12.028Z,23.37
2019-02-26T06:21:15.797Z,26.27
2019-02-26T06:26:17.854Z,24.23
2019-02-26T06:31:21.947Z,24.10
2019-02-26T06:36:25.880Z,24.73
2019-02-26T06:41:41.561Z,22.83
2019-02-26T06:46:43.059Z,28.37
2019-02-26T06:51:45.165Z,26.67
2019-02-26T06:56:49.099Z,28.50
2019-02-26T07:01:55.560Z,27.17
2019-02-26T07:06:57.186Z,28.63
2019-02-26T07:11:58.504Z,29.20
2019-02-26T07:17:00.122Z,31.13
2019-02-26T07:22:01.679Z,29.30
2019-02-26T07:27:04.298Z,28.97
2019-02-26T07:32:06.833Z,28.90
2019-02-26T07:37:09.340Z,30.13
2019-02-26T07:42:14.006Z,32.20
2019-02-26T07:47:15.350Z,28.13
2019-02-26T07:52:16.907Z,34.30
2019-02-26T07:57:20.589Z,29.57
2019-02-26T08:02:21.944Z,33.33
2019-02-26T08:07:24.384Z,33.57
2019-02-26T08:12:27.025Z,26.80
2019-02-26T08:17:28.655Z,36.97
2019-02-26T08:22:32.355Z,33.13
2019-02-26T08:27:35.557Z,38.37
2019-02-26T08:32:39.140Z,37.90
2019-02-26T08:37:40.971Z,40.47
2019-02-26T08:42:43.531Z,37.13
2019-02-26T08:47:45.095Z,43.23
2019-02-26T08:52:49.920Z,39.00
2019-02-26T08:57:51.988Z,39.53
2019-02-26T09:02:56.445Z,43.83
2019-02-26T09:07:57.349Z,40.53
2019-02-26T09:12:58.935Z,48.27
2019-02-26T09:18:00.548Z,41.53
2019-02-26T09:23:02.213Z,44.80
2019-02-26T09:28:03.876Z,41.20
2019-02-26T09:33:06.357Z,45.20
2019-02-26T09:38:09.038Z,44.53
2019-02-26T09:43:12.902Z,41.33
2019-02-26T09:48:16.596Z,49.77
2019-02-26T09:53:17.983Z,36.10
2019-02-26T09:58:21.048Z,40.30
2019-02-26T10:03:23.072Z,42.87
2019-02-26T10:08:25.397Z,43.47
2019-02-26T10:13:28.290Z,39.30
2019-02-26T10:18:32.804Z,39.87
2019-02-26T10:23:34.359Z,37.90
2019-02-26T10:28:39.421Z,32.80
2019-02-26T10:33:41.160Z,33.33
2019-02-26T10:38:42.859Z,36.87
2019-02-26T10:43:44.735Z,33.77
2019-02-26T10:48:47.966Z,37.43
2019-02-26T10:53:49.801Z,36.67
2019-02-26T10:58:54.735Z,31.33
2019-02-26T11:03:55.243Z,36.27
2019-02-26T11:09:01.064Z,33.50
2019-02-26T11:14:02.728Z,38.47
2019-02-26T11:19:07.526Z,43.23
2019-02-26T11:24:11.117Z,43.03
2019-02-26T11:29:12.499Z,37.03
2019-02-26T11:34:14.044Z,42.50
2019-02-26T11:39:16.538Z,37.00
2019-02-26T11:44:20.571Z,36.07
2019-02-26T11:49:21.951Z,37.27
2019-02-26T11:54:23.520Z,44.23
2019-02-26T11:59:25.071Z,42.03
2019-02-26T12:04:26.743Z,39.27
2019-02-26T12:09:32.410Z,50.67
2019-02-26T12:14:34.699Z,35.07
2019-02-26T12:19:37.186Z,35.20
2019-02-26T12:24:38.882Z,39.37
2019-02-26T12:29:42.674Z,33.73
2019-02-26T12:34:45.416Z,38.30
2019-02-26T12:39:49.931Z,37.07
2019-02-26T12:44:50.896Z,37.10
2019-02-26T12:49:52.485Z,38.37
2019-02-26T12:54:55.012Z,36.70
2019-02-26T12:59:57.476Z,31.50
2019-02-26T13:04:59.034Z,34.47
2019-02-26T13:10:03.609Z,32.07
2019-02-26T13:15:19.014Z,35.00
2019-02-26T13:20:25.518Z,31.20
2019-02-26T13:25:27.192Z,60.00
2019-02-26T13:30:28.861Z,33.30
2019-02-26T13:35:30.417Z,29.53
2019-02-26T13:40:38.230Z,29.57
2019-02-26T13:45:35.925Z,25.87
2019-02-26T13:50:39.108Z,28.43
2019-02-26T13:55:40.924Z,31.10
2019-02-26T14:00:42.576Z,29.73
2019-02-26T14:05:44.340Z,28.20
2019-02-26T14:10:46.000Z,33.13
2019-02-26T14:15:47.755Z,28.77
2019-02-26T14:20:49.448Z,32.40
2019-02-26T14:25:51.039Z,31.80
2019-02-26T14:30:52.599Z,30.17
2019-02-26T14:35:54.184Z,32.07
2019-02-26T14:40:55.752Z,30.23
2019-02-26T14:45:57.308Z,31.83
2019-02-26T14:50:59.872Z,35.93
2019-02-26T14:56:01.477Z,32.17
2019-02-26T15:01:03.995Z,34.80
2019-02-26T15:06:05.798Z,39.13
2019-02-26T15:11:07.493Z,36.33
2019-02-26T15:16:09.088Z,38.17
2019-02-26T15:21:10.763Z,39.50
2019-02-26T15:26:12.363Z,29.00
2019-02-26T15:31:14.144Z,28.23
2019-02-26T15:36:15.705Z,29.70
2019-02-26T15:41:17.384Z,28.87
2019-02-26T15:46:20.569Z,28.03
2019-02-26T15:51:23.528Z,27.80
2019-02-26T15:56:29.563Z,24.03
2019-02-26T16:01:29.967Z,21.77
2019-02-26T16:06:31.687Z,21.10
2019-02-26T16:11:34.642Z,23.00
2019-02-26T16:16:37.625Z,25.63
2019-02-26T16:21:39.598Z,24.93
2019-02-26T16:26:43.064Z,24.87
2019-02-26T16:31:45.624Z,25.93
2019-02-26T16:36:49.551Z,24.70
2019-02-26T16:41:51.135Z,29.93
2019-02-26T16:46:52.952Z,25.17
2019-02-26T16:51:56.793Z,27.87
2019-02-26T16:56:58.671Z,27.63
2019-02-26T17:02:01.912Z,29.57
2019-02-26T17:07:04.214Z,30.17
2019-02-26T17:12:06.122Z,29.93
2019-02-26T17:17:10.166Z,31.90
2019-02-26T17:22:11.868Z,32.47
2019-02-26T17:27:14.998Z,32.40
2019-02-26T17:32:17.728Z,34.37
2019-02-26T17:37:21.288Z,31.50
2019-02-26T17:42:23.731Z,32.37
2019-02-26T17:47:25.605Z,30.77
2019-02-26T17:52:29.271Z,33.90
2019-02-26T17:57:34.634Z,31.20
2019-02-26T18:02:35.560Z,32.83
2019-02-26T18:07:38.589Z,33.73
2019-02-26T18:12:42.667Z,37.77
2019-02-26T18:17:45.147Z,33.83
2019-02-26T18:22:46.883Z,35.43
2019-02-26T18:27:49.885Z,36.17
2019-02-26T18:32:57.426Z,37.43
2019-02-26T18:37:56.824Z,39.60
2019-02-26T18:42:58.524Z,43.57
2019-02-26T18:48:00.380Z,42.60
2019-02-26T18:53:05.276Z,38.23
2019-02-26T18:58:07.071Z,36.33
2019-02-26T19:03:09.519Z,35.47
2019-02-26T19:08:11.293Z,35.10
2019-02-26T19:13:12.928Z,38.20
2019-02-26T19:18:14.672Z,37.90
2019-02-26T19:23:16.560Z,38.97
2019-02-26T19:28:18.471Z,39.93
2019-02-26T19:33:21.742Z,39.33
2019-02-26T19:38:27.249Z,39.47
2019-02-26T19:43:28.832Z,39.07
2019-02-26T19:48:32.201Z,38.53
2019-02-26T19:53:35.183Z,38.77
2019-02-26T19:58:40.616Z,38.83
2019-02-26T20:03:40.915Z,35.70
2019-02-26T20:08:42.562Z,38.23
2019-02-26T20:13:44.158Z,39.67
2019-02-26T20:18:45.724Z,42.77
2019-02-26T20:23:47.394Z,43.90
2019-02-26T20:28:48.945Z,43.23
2019-02-26T20:33:50.503Z,46.03
2019-02-26T20:38:52.059Z,46.53
2019-02-26T20:43:53.621Z,48.33
2019-02-26T20:48:55.172Z,57.33
2019-02-26T20:53:56.768Z,69.83
2019-02-26T20:58:58.330Z,77.97
2019-02-26T21:03:59.925Z,78.73
2019-02-26T21:09:06.561Z,87.20
2019-02-26T21:14:07.868Z,87.50
2019-02-26T21:19:10.842Z,86.30
2019-02-26T21:24:14.467Z,77.17
2019-02-26T21:29:17.925Z,75.53
2019-02-26T21:34:21.427Z,76.17
2019-02-26T21:39:24.881Z,74.87
2019-02-26T21:44:28.331Z,79.17
2019-02-26T21:49:31.800Z,75.03
2019-02-26T21:54:35.256Z,75.40
2019-02-26T21:59:38.752Z,74.77
2019-02-26T22:04:42.199Z,70.67
2019-02-26T22:09:43.862Z,72.23
2019-02-26T22:14:45.760Z,75.63
2019-02-26T22:19:47.516Z,79.40
2019-02-26T22:24:49.158Z,78.87
2019-02-26T22:29:50.708Z,78.27
2019-02-26T22:34:53.585Z,82.63
2019-02-26T22:39:58.633Z,73.73
2019-02-26T22:45:00.229Z,67.60
2019-02-26T22:50:03.194Z,65.07
2019-02-26T22:55:08.751Z,72.57
2019-02-26T23:00:49.827Z,76.50
2019-02-26T23:05:53.381Z,85.43
2019-02-26T23:10:57.513Z,95.97
2019-02-26T23:15:59.959Z,93.33
2019-02-26T23:21:01.808Z,93.77
2019-02-26T23:26:04.139Z,92.63
2019-02-26T23:31:06.903Z,93.07
2019-02-26T23:36:08.896Z,84.73
2019-02-26T23:41:10.448Z,84.47
2019-02-26T23:46:12.303Z,83.10
2019-02-26T23:51:13.888Z,78.50
2019-02-26T23:56:16.781Z,78.00
